sensor_id;sensor_type;location;lat;lon;timestamp;pressure;altitude;pressure_sealevel;temperature;humidity
27729;BME280;15126;42.186;24.340;2023-12-22T00:00:21;97806.28;;;3.93;74.20
27729;BME280;15126;42.186;24.340;2023-12-22T00:02:50;97810.59;;;3.94;74.29
27729;BME280;15126;42.186;24.340;2023-12-22T00:05:17;97794.06;;;3.94;74.01
27729;BME280;15126;42.186;24.340;2023-12-22T00:07:44;97796.03;;;3.93;74.60
27729;BME280;15126;42.186;24.340;2023-12-22T00:10:11;97798.44;;;3.91;74.48
27729;BME280;15126;42.186;24.340;2023-12-22T00:12:38;97801.94;;;3.92;74.27
27729;BME280;15126;42.186;24.340;2023-12-22T00:15:09;97767.31;;;3.71;74.71
27729;BME280;15126;42.186;24.340;2023-12-22T00:17:36;97787.53;;;3.84;74.58
27729;BME280;15126;42.186;24.340;2023-12-22T00:20:05;97796.13;;;3.86;74.47
27729;BME280;15126;42.186;24.340;2023-12-22T00:22:34;97789.88;;;3.86;74.70
27729;BME280;15126;42.186;24.340;2023-12-22T00:25:01;97784.72;;;3.88;74.43
27729;BME280;15126;42.186;24.340;2023-12-22T00:27:29;97787.47;;;3.88;74.47
27729;BME280;15126;42.186;24.340;2023-12-22T00:29:55;97767.03;;;3.85;74.53
27729;BME280;15126;42.186;24.340;2023-12-22T00:32:22;97776.78;;;3.90;74.44
27729;BME280;15126;42.186;24.340;2023-12-22T00:34:49;97781.88;;;3.91;74.36
27729;BME280;15126;42.186;24.340;2023-12-22T00:37:17;97777.28;;;3.85;74.43
27729;BME280;15126;42.186;24.340;2023-12-22T00:39:44;97766.25;;;3.85;73.72
27729;BME280;15126;42.186;24.340;2023-12-22T00:42:11;97761.84;;;3.68;74.76
27729;BME280;15126;42.186;24.340;2023-12-22T00:44:38;97769.63;;;3.73;74.40
27729;BME280;15126;42.186;24.340;2023-12-22T00:47:06;97760.50;;;3.76;74.31
27729;BME280;15126;42.186;24.340;2023-12-22T00:49:32;97767.25;;;3.75;73.80
27729;BME280;15126;42.186;24.340;2023-12-22T00:51:59;97756.34;;;3.68;74.37
27729;BME280;15126;42.186;24.340;2023-12-22T00:54:28;97761.72;;;3.75;74.19
27729;BME280;15126;42.186;24.340;2023-12-22T00:56:57;97741.94;;;3.80;73.22
27729;BME280;15126;42.186;24.340;2023-12-22T00:59:23;97736.84;;;3.58;73.59
27729;BME280;15126;42.186;24.340;2023-12-22T01:01:51;97739.44;;;3.46;73.36
27729;BME280;15126;42.186;24.340;2023-12-22T01:04:17;97752.50;;;3.61;74.48
27729;BME280;15126;42.186;24.340;2023-12-22T01:06:49;97743.25;;;3.52;74.56
27729;BME280;15126;42.186;24.340;2023-12-22T01:09:16;97760.66;;;3.69;73.84
27729;BME280;15126;42.186;24.340;2023-12-22T01:11:46;97747.97;;;3.51;74.08
27729;BME280;15126;42.186;24.340;2023-12-22T01:14:13;97765.34;;;3.72;74.10
27729;BME280;15126;42.186;24.340;2023-12-22T01:16:40;97741.69;;;3.51;73.72
27729;BME280;15126;42.186;24.340;2023-12-22T01:19:07;97729.84;;;3.54;73.03
27729;BME280;15126;42.186;24.340;2023-12-22T01:21:34;97726.81;;;3.68;73.48
27729;BME280;15126;42.186;24.340;2023-12-22T01:24:04;97746.72;;;3.76;74.04
27729;BME280;15126;42.186;24.340;2023-12-22T01:26:31;97726.66;;;3.75;73.21
27729;BME280;15126;42.186;24.340;2023-12-22T01:28:59;97728.28;;;3.73;73.43
27729;BME280;15126;42.186;24.340;2023-12-22T01:31:26;97723.47;;;3.57;74.24
27729;BME280;15126;42.186;24.340;2023-12-22T01:33:53;97718.41;;;3.55;74.05
27729;BME280;15126;42.186;24.340;2023-12-22T01:36:22;97733.59;;;3.64;74.22
27729;BME280;15126;42.186;24.340;2023-12-22T01:38:49;97727.25;;;3.67;73.86
27729;BME280;15126;42.186;24.340;2023-12-22T01:41:16;97706.53;;;3.58;74.27
27729;BME280;15126;42.186;24.340;2023-12-22T01:43:43;97715.34;;;3.70;74.77
27729;BME280;15126;42.186;24.340;2023-12-22T01:46:12;97708.63;;;3.71;74.51
27729;BME280;15126;42.186;24.340;2023-12-22T01:48:39;97704.69;;;3.72;74.92
27729;BME280;15126;42.186;24.340;2023-12-22T01:51:09;97700.38;;;3.71;74.35
27729;BME280;15126;42.186;24.340;2023-12-22T01:53:36;97680.28;;;3.70;75.14
27729;BME280;15126;42.186;24.340;2023-12-22T01:56:04;97682.66;;;3.72;75.47
27729;BME280;15126;42.186;24.340;2023-12-22T01:58:36;97681.94;;;3.68;75.09
27729;BME280;15126;42.186;24.340;2023-12-22T02:01:04;97654.94;;;3.59;75.39
27729;BME280;15126;42.186;24.340;2023-12-22T02:03:34;97673.53;;;3.75;75.48
27729;BME280;15126;42.186;24.340;2023-12-22T02:06:02;97677.75;;;3.79;75.49
27729;BME280;15126;42.186;24.340;2023-12-22T02:08:32;97674.22;;;3.79;75.50
27729;BME280;15126;42.186;24.340;2023-12-22T02:10:59;97653.84;;;3.73;75.58
27729;BME280;15126;42.186;24.340;2023-12-22T02:13:26;97649.97;;;3.70;75.77
27729;BME280;15126;42.186;24.340;2023-12-22T02:16:01;97656.34;;;3.67;74.78
27729;BME280;15126;42.186;24.340;2023-12-22T02:18:35;97672.41;;;3.72;74.90
27729;BME280;15126;42.186;24.340;2023-12-22T02:21:05;97665.66;;;3.73;75.13
27729;BME280;15126;42.186;24.340;2023-12-22T02:23:33;97649.97;;;3.70;75.70
27729;BME280;15126;42.186;24.340;2023-12-22T02:26:06;97653.09;;;3.72;75.41
27729;BME280;15126;42.186;24.340;2023-12-22T02:28:38;97654.81;;;3.66;75.55
27729;BME280;15126;42.186;24.340;2023-12-22T02:31:12;97653.31;;;3.61;75.93
27729;BME280;15126;42.186;24.340;2023-12-22T02:33:43;97668.94;;;3.68;76.39
27729;BME280;15126;42.186;24.340;2023-12-22T02:36:12;97671.75;;;3.65;75.47
27729;BME280;15126;42.186;24.340;2023-12-22T02:38:43;97668.44;;;3.53;75.74
27729;BME280;15126;42.186;24.340;2023-12-22T02:41:12;97646.69;;;3.39;76.29
27729;BME280;15126;42.186;24.340;2023-12-22T02:43:39;97666.03;;;3.55;76.68
27729;BME280;15126;42.186;24.340;2023-12-22T02:46:12;97673.03;;;3.60;77.16
27729;BME280;15126;42.186;24.340;2023-12-22T02:48:40;97622.59;;;3.43;77.26
27729;BME280;15126;42.186;24.340;2023-12-22T02:51:07;97653.19;;;3.69;76.03
27729;BME280;15126;42.186;24.340;2023-12-22T02:53:34;97635.22;;;3.60;76.46
27729;BME280;15126;42.186;24.340;2023-12-22T02:56:02;97654.91;;;3.79;76.55
27729;BME280;15126;42.186;24.340;2023-12-22T02:58:31;97644.94;;;3.85;75.88
27729;BME280;15126;42.186;24.340;2023-12-22T03:00:58;97650.41;;;3.88;75.43
27729;BME280;15126;42.186;24.340;2023-12-22T03:03:25;97641.06;;;3.82;75.96
27729;BME280;15126;42.186;24.340;2023-12-22T03:05:53;97652.66;;;3.93;75.98
27729;BME280;15126;42.186;24.340;2023-12-22T03:08:19;97650.16;;;3.99;75.61
27729;BME280;15126;42.186;24.340;2023-12-22T03:10:46;97608.34;;;3.84;75.85
27729;BME280;15126;42.186;24.340;2023-12-22T03:13:15;97621.03;;;3.98;75.60
27729;BME280;15126;42.186;24.340;2023-12-22T03:15:42;97634.22;;;4.06;75.39
27729;BME280;15126;42.186;24.340;2023-12-22T03:18:08;97636.06;;;4.13;75.82
27729;BME280;15126;42.186;24.340;2023-12-22T03:20:35;97604.47;;;3.98;76.06
27729;BME280;15126;42.186;24.340;2023-12-22T03:23:03;97622.94;;;4.17;75.82
27729;BME280;15126;42.186;24.340;2023-12-22T03:25:30;97634.69;;;4.21;75.70
27729;BME280;15126;42.186;24.340;2023-12-22T03:27:57;97599.84;;;4.11;75.78
27729;BME280;15126;42.186;24.340;2023-12-22T03:30:27;97609.34;;;4.10;75.61
27729;BME280;15126;42.186;24.340;2023-12-22T03:32:53;97619.94;;;4.11;75.08
27729;BME280;15126;42.186;24.340;2023-12-22T03:35:21;97638.28;;;4.02;74.89
27729;BME280;15126;42.186;24.340;2023-12-22T03:37:47;97644.41;;;4.09;75.19
27729;BME280;15126;42.186;24.340;2023-12-22T03:40:14;97635.69;;;4.11;74.55
27729;BME280;15126;42.186;24.340;2023-12-22T03:42:44;97636.13;;;4.09;75.74
27729;BME280;15126;42.186;24.340;2023-12-22T03:45:12;97645.94;;;4.10;75.40
27729;BME280;15126;42.186;24.340;2023-12-22T03:47:40;97641.56;;;4.13;75.66
27729;BME280;15126;42.186;24.340;2023-12-22T03:50:07;97652.41;;;4.04;76.36
27729;BME280;15126;42.186;24.340;2023-12-22T03:52:35;97654.72;;;4.05;76.19
27729;BME280;15126;42.186;24.340;2023-12-22T03:55:04;97647.56;;;4.08;76.89
27729;BME280;15126;42.186;24.340;2023-12-22T03:57:31;97638.97;;;4.06;75.83
27729;BME280;15126;42.186;24.340;2023-12-22T03:59:58;97635.34;;;4.09;75.75
27729;BME280;15126;42.186;24.340;2023-12-22T04:02:25;97619.94;;;4.11;75.99
27729;BME280;15126;42.186;24.340;2023-12-22T04:04:53;97617.94;;;4.12;75.60
27729;BME280;15126;42.186;24.340;2023-12-22T04:07:21;97603.81;;;4.10;76.42
27729;BME280;15126;42.186;24.340;2023-12-22T04:09:48;97615.00;;;4.19;75.99
27729;BME280;15126;42.186;24.340;2023-12-22T04:12:15;97611.13;;;4.16;76.40
27729;BME280;15126;42.186;24.340;2023-12-22T04:14:42;97605.97;;;4.18;76.38
27729;BME280;15126;42.186;24.340;2023-12-22T04:17:10;97604.69;;;4.23;76.70
27729;BME280;15126;42.186;24.340;2023-12-22T04:19:37;97573.75;;;3.99;76.11
27729;BME280;15126;42.186;24.340;2023-12-22T04:22:05;97612.88;;;4.27;76.05
27729;BME280;15126;42.186;24.340;2023-12-22T04:24:34;97604.94;;;4.29;76.13
27729;BME280;15126;42.186;24.340;2023-12-22T04:27:00;97612.78;;;4.30;75.94
27729;BME280;15126;42.186;24.340;2023-12-22T04:29:30;97564.09;;;4.07;76.40
27729;BME280;15126;42.186;24.340;2023-12-22T04:31:57;97598.91;;;4.34;76.02
27729;BME280;15126;42.186;24.340;2023-12-22T04:34:24;97570.88;;;4.19;77.12
27729;BME280;15126;42.186;24.340;2023-12-22T04:36:51;97590.19;;;4.35;76.89
27729;BME280;15126;42.186;24.340;2023-12-22T04:39:19;97593.31;;;4.37;76.79
27729;BME280;15126;42.186;24.340;2023-12-22T04:41:46;97583.22;;;4.31;76.75
27729;BME280;15126;42.186;24.340;2023-12-22T04:44:13;97592.53;;;4.37;76.75
27729;BME280;15126;42.186;24.340;2023-12-22T04:46:40;97569.88;;;4.29;76.19
27729;BME280;15126;42.186;24.340;2023-12-22T04:49:07;97585.38;;;4.39;76.02
27729;BME280;15126;42.186;24.340;2023-12-22T04:51:34;97590.88;;;4.39;76.07
27729;BME280;15126;42.186;24.340;2023-12-22T04:54:01;97587.69;;;4.41;76.54
27729;BME280;15126;42.186;24.340;2023-12-22T04:56:29;97570.88;;;4.35;76.79
27729;BME280;15126;42.186;24.340;2023-12-22T04:58:57;97567.25;;;4.38;77.06
27729;BME280;15126;42.186;24.340;2023-12-22T05:01:23;97561.84;;;4.35;76.95
27729;BME280;15126;42.186;24.340;2023-12-22T05:03:50;97583.53;;;4.49;76.63
27729;BME280;15126;42.186;24.340;2023-12-22T05:06:19;97579.78;;;4.43;76.85
27729;BME280;15126;42.186;24.340;2023-12-22T05:08:46;97581.22;;;4.47;76.14
27729;BME280;15126;42.186;24.340;2023-12-22T05:11:13;97571.84;;;4.45;76.43
27729;BME280;15126;42.186;24.340;2023-12-22T05:13:41;97581.16;;;4.51;76.90
27729;BME280;15126;42.186;24.340;2023-12-22T05:16:10;97574.00;;;4.53;76.53
27729;BME280;15126;42.186;24.340;2023-12-22T05:18:37;97558.44;;;4.43;75.85
27729;BME280;15126;42.186;24.340;2023-12-22T05:21:04;97574.84;;;4.50;76.23
27729;BME280;15126;42.186;24.340;2023-12-22T05:23:31;97551.94;;;4.37;75.76
27729;BME280;15126;42.186;24.340;2023-12-22T05:25:58;97568.75;;;4.43;76.46
27729;BME280;15126;42.186;24.340;2023-12-22T05:28:25;97543.47;;;4.28;76.09
27729;BME280;15126;42.186;24.340;2023-12-22T05:30:53;97557.47;;;4.21;75.83
27729;BME280;15126;42.186;24.340;2023-12-22T05:33:20;97585.38;;;4.39;76.95
27729;BME280;15126;42.186;24.340;2023-12-22T05:35:47;97589.34;;;4.38;77.26
27729;BME280;15126;42.186;24.340;2023-12-22T05:38:14;97599.25;;;4.36;77.37
27729;BME280;15126;42.186;24.340;2023-12-22T05:40:44;97576.75;;;4.37;76.67
27729;BME280;15126;42.186;24.340;2023-12-22T05:43:13;97572.63;;;4.29;77.17
27729;BME280;15126;42.186;24.340;2023-12-22T05:45:41;97556.75;;;4.17;76.81
27729;BME280;15126;42.186;24.340;2023-12-22T05:48:11;97582.53;;;4.43;77.43
27729;BME280;15126;42.186;24.340;2023-12-22T05:50:39;97587.59;;;4.44;77.32
27729;BME280;15126;42.186;24.340;2023-12-22T05:53:08;97578.47;;;4.31;77.34
27729;BME280;15126;42.186;24.340;2023-12-22T05:55:42;97579.84;;;4.39;76.98
27729;BME280;15126;42.186;24.340;2023-12-22T05:58:11;97588.72;;;4.47;77.17
27729;BME280;15126;42.186;24.340;2023-12-22T06:00:40;97590.97;;;4.52;77.51
27729;BME280;15126;42.186;24.340;2023-12-22T06:03:11;97581.91;;;4.51;77.91
27729;BME280;15126;42.186;24.340;2023-12-22T06:05:41;97577.44;;;4.41;77.94
27729;BME280;15126;42.186;24.340;2023-12-22T06:08:08;97590.19;;;4.51;78.07
27729;BME280;15126;42.186;24.340;2023-12-22T06:10:36;97572.78;;;4.38;78.87
27729;BME280;15126;42.186;24.340;2023-12-22T06:13:06;97573.28;;;4.33;79.11
27729;BME280;15126;42.186;24.340;2023-12-22T06:15:35;97573.13;;;4.24;80.17
27729;BME280;15126;42.186;24.340;2023-12-22T06:18:08;97576.91;;;4.30;80.73
27729;BME280;15126;42.186;24.340;2023-12-22T06:20:36;97588.13;;;4.39;80.50
27729;BME280;15126;42.186;24.340;2023-12-22T06:23:03;97589.34;;;4.38;80.52
27729;BME280;15126;42.186;24.340;2023-12-22T06:25:33;97568.63;;;4.30;80.31
27729;BME280;15126;42.186;24.340;2023-12-22T06:28:01;97519.00;;;3.98;81.04
27729;BME280;15126;42.186;24.340;2023-12-22T06:30:29;97591.16;;;4.45;80.89
27729;BME280;15126;42.186;24.340;2023-12-22T06:32:56;97567.78;;;4.33;80.72
27729;BME280;15126;42.186;24.340;2023-12-22T06:35:23;97586.56;;;4.54;80.33
27729;BME280;15126;42.186;24.340;2023-12-22T06:37:52;97576.63;;;4.57;80.89
27729;BME280;15126;42.186;24.340;2023-12-22T06:40:23;97581.41;;;4.56;80.68
27729;BME280;15126;42.186;24.340;2023-12-22T06:42:53;97585.69;;;4.57;81.40
27729;BME280;15126;42.186;24.340;2023-12-22T06:45:21;97580.28;;;4.54;81.18
27729;BME280;15126;42.186;24.340;2023-12-22T06:47:48;97544.69;;;4.27;81.65
27729;BME280;15126;42.186;24.340;2023-12-22T06:50:17;97558.66;;;4.36;81.43
27729;BME280;15126;42.186;24.340;2023-12-22T06:52:48;97599.66;;;4.66;81.05
27729;BME280;15126;42.186;24.340;2023-12-22T06:55:18;97595.00;;;4.63;81.57
27729;BME280;15126;42.186;24.340;2023-12-22T06:57:45;97600.63;;;4.60;81.21
27729;BME280;15126;42.186;24.340;2023-12-22T07:00:17;97585.69;;;4.57;81.61
27729;BME280;15126;42.186;24.340;2023-12-22T07:02:44;97592.91;;;4.67;81.37
27729;BME280;15126;42.186;24.340;2023-12-22T07:05:34;97611.38;;;4.70;81.11
27729;BME280;15126;42.186;24.340;2023-12-22T07:08:06;97599.50;;;4.57;80.87
27729;BME280;15126;42.186;24.340;2023-12-22T07:10:35;97617.34;;;4.69;81.98
27729;BME280;15126;42.186;24.340;2023-12-22T07:13:04;97622.41;;;4.70;82.10
27729;BME280;15126;42.186;24.340;2023-12-22T07:15:32;97631.22;;;4.81;82.14
27729;BME280;15126;42.186;24.340;2023-12-22T07:18:02;97608.13;;;4.75;82.63
27729;BME280;15126;42.186;24.340;2023-12-22T07:20:30;97580.38;;;4.50;83.63
27729;BME280;15126;42.186;24.340;2023-12-22T07:22:57;97604.94;;;4.61;82.75
27729;BME280;15126;42.186;24.340;2023-12-22T07:25:26;97570.00;;;4.38;82.42
27729;BME280;15126;42.186;24.340;2023-12-22T07:27:55;97608.19;;;4.72;81.74
27729;BME280;15126;42.186;24.340;2023-12-22T07:30:25;97563.13;;;4.30;82.91
27729;BME280;15126;42.186;24.340;2023-12-22T07:32:59;97593.19;;;4.57;83.40
27729;BME280;15126;42.186;24.340;2023-12-22T07:35:29;97577.28;;;4.48;83.09
27729;BME280;15126;42.186;24.340;2023-12-22T07:37:58;97590.03;;;4.58;82.71
27729;BME280;15126;42.186;24.340;2023-12-22T07:40:31;97577.78;;;4.43;83.11
27729;BME280;15126;42.186;24.340;2023-12-22T07:42:59;97593.44;;;4.62;82.03
27729;BME280;15126;42.186;24.340;2023-12-22T07:45:26;97584.22;;;4.69;82.68
27729;BME280;15126;42.186;24.340;2023-12-22T07:47:54;97563.38;;;4.52;82.09
27729;BME280;15126;42.186;24.340;2023-12-22T07:50:24;97569.56;;;4.72;82.59
27729;BME280;15126;42.186;24.340;2023-12-22T07:52:51;97596.69;;;4.90;82.96
27729;BME280;15126;42.186;24.340;2023-12-22T07:55:20;97597.19;;;5.01;83.07
27729;BME280;15126;42.186;24.340;2023-12-22T07:57:48;97585.59;;;5.06;82.20
27729;BME280;15126;42.186;24.340;2023-12-22T08:00:19;97560.50;;;5.00;82.78
27729;BME280;15126;42.186;24.340;2023-12-22T08:02:48;97584.56;;;5.28;82.40
27729;BME280;15126;42.186;24.340;2023-12-22T08:05:14;97595.78;;;5.50;82.54
27729;BME280;15126;42.186;24.340;2023-12-22T08:07:44;97606.00;;;5.66;82.58
27729;BME280;15126;42.186;24.340;2023-12-22T08:10:14;97606.22;;;5.71;81.51
27729;BME280;15126;42.186;24.340;2023-12-22T08:12:43;97583.56;;;5.76;80.85
27729;BME280;15126;42.186;24.340;2023-12-22T08:15:10;97573.03;;;5.71;79.92
27729;BME280;15126;42.186;24.340;2023-12-22T08:17:47;97607.50;;;5.95;78.89
27729;BME280;15126;42.186;24.340;2023-12-22T08:20:17;97575.94;;;5.80;78.74
27729;BME280;15126;42.186;24.340;2023-12-22T08:22:45;97599.53;;;6.10;77.90
27729;BME280;15126;42.186;24.340;2023-12-22T08:25:14;97619.03;;;6.19;77.50
27729;BME280;15126;42.186;24.340;2023-12-22T08:27:46;97608.41;;;6.18;77.39
27729;BME280;15126;42.186;24.340;2023-12-22T08:30:13;97614.81;;;6.15;76.57
27729;BME280;15126;42.186;24.340;2023-12-22T08:32:44;97613.06;;;6.21;76.23
27729;BME280;15126;42.186;24.340;2023-12-22T08:35:15;97617.47;;;6.31;76.15
27729;BME280;15126;42.186;24.340;2023-12-22T08:37:43;97537.81;;;5.88;76.43
27729;BME280;15126;42.186;24.340;2023-12-22T08:40:13;97609.72;;;6.13;74.40
27729;BME280;15126;42.186;24.340;2023-12-22T08:42:43;97618.81;;;6.14;75.57
27729;BME280;15126;42.186;24.340;2023-12-22T08:45:10;97608.50;;;6.02;76.43
27729;BME280;15126;42.186;24.340;2023-12-22T08:47:38;97599.09;;;5.99;77.67
27729;BME280;15126;42.186;24.340;2023-12-22T08:50:06;97603.53;;;6.09;77.75
27729;BME280;15126;42.186;24.340;2023-12-22T08:52:39;97598.22;;;6.15;78.03
27729;BME280;15126;42.186;24.340;2023-12-22T08:55:07;97596.66;;;6.01;78.95
27729;BME280;15126;42.186;24.340;2023-12-22T08:57:36;97600.00;;;6.09;79.58
27729;BME280;15126;42.186;24.340;2023-12-22T09:00:04;97601.09;;;6.11;79.96
27729;BME280;15126;42.186;24.340;2023-12-22T09:02:31;97586.03;;;6.12;80.26
27729;BME280;15126;42.186;24.340;2023-12-22T09:04:58;97580.84;;;6.14;80.64
27729;BME280;15126;42.186;24.340;2023-12-22T09:07:25;97597.13;;;6.25;81.50
27729;BME280;15126;42.186;24.340;2023-12-22T09:09:55;97593.34;;;6.06;81.99
27729;BME280;15126;42.186;24.340;2023-12-22T09:12:24;97570.78;;;5.95;82.55
27729;BME280;15126;42.186;24.340;2023-12-22T09:14:54;97584.28;;;6.06;82.49
27729;BME280;15126;42.186;24.340;2023-12-22T09:17:22;97586.59;;;6.20;82.79
27729;BME280;15126;42.186;24.340;2023-12-22T09:19:49;97587.47;;;6.29;83.16
27729;BME280;15126;42.186;24.340;2023-12-22T09:22:21;97597.66;;;6.32;83.00
27729;BME280;15126;42.186;24.340;2023-12-22T09:24:55;97599.53;;;6.48;82.47
27729;BME280;15126;42.186;24.340;2023-12-22T09:27:22;97534.13;;;6.04;82.59
27729;BME280;15126;42.186;24.340;2023-12-22T09:30:00;97567.00;;;6.27;82.08
27729;BME280;15126;42.186;24.340;2023-12-22T09:32:32;97588.41;;;6.60;82.37
27729;BME280;15126;42.186;24.340;2023-12-22T09:35:07;97592.53;;;6.56;82.07
27729;BME280;15126;42.186;24.340;2023-12-22T09:37:34;97592.31;;;6.63;82.19
27729;BME280;15126;42.186;24.340;2023-12-22T09:40:04;97592.63;;;6.65;82.60
27729;BME280;15126;42.186;24.340;2023-12-22T09:42:33;97586.84;;;6.72;83.71
27729;BME280;15126;42.186;24.340;2023-12-22T09:45:04;97593.25;;;6.82;84.56
27729;BME280;15126;42.186;24.340;2023-12-22T09:47:35;97579.25;;;6.85;84.72
27729;BME280;15126;42.186;24.340;2023-12-22T09:50:04;97590.31;;;6.98;85.09
27729;BME280;15126;42.186;24.340;2023-12-22T09:52:33;97591.53;;;6.97;86.36
27729;BME280;15126;42.186;24.340;2023-12-22T09:55:07;97592.25;;;7.10;86.34
27729;BME280;15126;42.186;24.340;2023-12-22T09:57:39;97596.78;;;7.16;86.59
27729;BME280;15126;42.186;24.340;2023-12-22T10:00:08;97606.81;;;7.23;86.91
27729;BME280;15126;42.186;24.340;2023-12-22T10:02:36;97603.03;;;7.30;86.96
27729;BME280;15126;42.186;24.340;2023-12-22T10:05:04;97601.94;;;7.27;87.04
27729;BME280;15126;42.186;24.340;2023-12-22T10:07:32;97588.91;;;7.15;87.73
27729;BME280;15126;42.186;24.340;2023-12-22T10:10:11;97615.75;;;7.40;88.21
27729;BME280;15126;42.186;24.340;2023-12-22T10:12:40;97614.53;;;7.41;88.34
27729;BME280;15126;42.186;24.340;2023-12-22T10:15:12;97612.06;;;7.43;88.69
27729;BME280;15126;42.186;24.340;2023-12-22T10:17:42;97606.31;;;7.37;89.02
27729;BME280;15126;42.186;24.340;2023-12-22T10:20:13;97606.72;;;7.27;89.97
27729;BME280;15126;42.186;24.340;2023-12-22T10:22:40;97612.38;;;7.23;90.42
27729;BME280;15126;42.186;24.340;2023-12-22T10:25:14;97578.19;;;7.04;90.12
27729;BME280;15126;42.186;24.340;2023-12-22T10:27:42;97608.50;;;7.20;91.36
27729;BME280;15126;42.186;24.340;2023-12-22T10:30:10;97595.22;;;7.15;91.52
27729;BME280;15126;42.186;24.340;2023-12-22T10:32:42;97606.28;;;7.28;91.46
27729;BME280;15126;42.186;24.340;2023-12-22T10:35:09;97602.06;;;7.24;91.70
27729;BME280;15126;42.186;24.340;2023-12-22T10:37:37;97583.69;;;7.17;92.01
27729;BME280;15126;42.186;24.340;2023-12-22T10:40:15;97600.59;;;7.32;91.80
27729;BME280;15126;42.186;24.340;2023-12-22T10:42:44;97591.06;;;7.33;91.94
27729;BME280;15126;42.186;24.340;2023-12-22T10:45:15;97598.41;;;7.48;91.95
27729;BME280;15126;42.186;24.340;2023-12-22T10:47:48;97574.09;;;7.31;92.84
27729;BME280;15126;42.186;24.340;2023-12-22T10:50:19;97582.72;;;7.33;93.73
27729;BME280;15126;42.186;24.340;2023-12-22T10:52:50;97545.41;;;7.25;93.68
27729;BME280;15126;42.186;24.340;2023-12-22T10:55:22;97580.59;;;7.37;94.76
27729;BME280;15126;42.186;24.340;2023-12-22T10:57:50;97566.69;;;7.49;94.77
27729;BME280;15126;42.186;24.340;2023-12-22T11:00:20;97558.78;;;7.48;95.31
27729;BME280;15126;42.186;24.340;2023-12-22T11:02:48;97543.81;;;7.36;95.89
27729;BME280;15126;42.186;24.340;2023-12-22T11:05:15;97527.28;;;7.33;96.42
27729;BME280;15126;42.186;24.340;2023-12-22T11:07:54;97511.38;;;7.24;96.01
27729;BME280;15126;42.186;24.340;2023-12-22T11:10:24;97527.56;;;7.56;96.03
27729;BME280;15126;42.186;24.340;2023-12-22T11:12:53;97516.25;;;7.72;95.53
27729;BME280;15126;42.186;24.340;2023-12-22T11:15:24;97500.09;;;7.80;95.37
27729;BME280;15126;42.186;24.340;2023-12-22T11:17:56;97493.63;;;7.83;95.03
27729;BME280;15126;42.186;24.340;2023-12-22T11:20:27;97495.25;;;8.02;94.94
27729;BME280;15126;42.186;24.340;2023-12-22T11:23:01;97523.75;;;8.33;93.94
27729;BME280;15126;42.186;24.340;2023-12-22T11:25:31;97525.78;;;8.51;93.36
27729;BME280;15126;42.186;24.340;2023-12-22T11:28:00;97509.88;;;8.70;92.88
27729;BME280;15126;42.186;24.340;2023-12-22T11:30:31;97510.84;;;8.85;92.23
27729;BME280;15126;42.186;24.340;2023-12-22T11:32:59;97514.09;;;9.02;91.33
27729;BME280;15126;42.186;24.340;2023-12-22T11:35:32;97512.19;;;9.17;90.25
27729;BME280;15126;42.186;24.340;2023-12-22T11:38:03;97484.69;;;9.19;88.93
27729;BME280;15126;42.186;24.340;2023-12-22T11:40:41;97483.13;;;9.36;88.25
27729;BME280;15126;42.186;24.340;2023-12-22T11:43:14;97456.69;;;9.40;87.30
27729;BME280;15126;42.186;24.340;2023-12-22T11:45:44;97471.19;;;9.53;86.72
27729;BME280;15126;42.186;24.340;2023-12-22T11:48:13;97436.59;;;9.45;85.31
27729;BME280;15126;42.186;24.340;2023-12-22T11:50:41;97457.50;;;9.74;85.24
27729;BME280;15126;42.186;24.340;2023-12-22T11:53:19;97440.00;;;9.73;85.15
27729;BME280;15126;42.186;24.340;2023-12-22T11:55:58;97462.03;;;9.95;84.41
27729;BME280;15126;42.186;24.340;2023-12-22T11:58:38;97445.94;;;9.99;83.96
27729;BME280;15126;42.186;24.340;2023-12-22T12:01:07;97442.53;;;9.95;83.43
27729;BME280;15126;42.186;24.340;2023-12-22T12:03:50;97454.16;;;9.93;83.24
27729;BME280;15126;42.186;24.340;2023-12-22T12:06:30;97370.56;;;9.46;83.04
27729;BME280;15126;42.186;24.340;2023-12-22T12:08:59;97425.41;;;9.87;83.61
27729;BME280;15126;42.186;24.340;2023-12-22T12:14:32;97449.94;;;9.98;84.47
27729;BME280;15126;42.186;24.340;2023-12-22T12:17:06;97459.03;;;10.07;85.06
27729;BME280;15126;42.186;24.340;2023-12-22T12:19:34;97450.19;;;10.09;84.55
27729;BME280;15126;42.186;24.340;2023-12-22T12:22:07;97448.69;;;10.08;84.44
27729;BME280;15126;42.186;24.340;2023-12-22T12:24:36;97469.06;;;10.14;84.39
27729;BME280;15126;42.186;24.340;2023-12-22T12:27:04;97460.63;;;9.99;83.76
27729;BME280;15126;42.186;24.340;2023-12-22T12:29:33;97492.47;;;10.07;82.62
27729;BME280;15126;42.186;24.340;2023-12-22T12:32:04;97499.25;;;10.06;82.12
27729;BME280;15126;42.186;24.340;2023-12-22T12:34:32;97503.16;;;10.00;81.15
27729;BME280;15126;42.186;24.340;2023-12-22T12:37:00;97469.25;;;9.78;79.66
27729;BME280;15126;42.186;24.340;2023-12-22T12:39:30;97512.75;;;9.99;78.90
27729;BME280;15126;42.186;24.340;2023-12-22T12:42:01;97507.66;;;9.97;80.69
27729;BME280;15126;42.186;24.340;2023-12-22T12:44:29;97499.28;;;9.97;79.42
27729;BME280;15126;42.186;24.340;2023-12-22T12:47:13;97470.63;;;9.73;79.30
27729;BME280;15126;42.186;24.340;2023-12-22T12:49:41;97494.44;;;9.83;79.57
27729;BME280;15126;42.186;24.340;2023-12-22T12:52:12;97489.16;;;9.85;79.46
27729;BME280;15126;42.186;24.340;2023-12-22T12:54:44;97508.78;;;9.91;78.84
27729;BME280;15126;42.186;24.340;2023-12-22T12:57:16;97518.69;;;9.92;79.59
27729;BME280;15126;42.186;24.340;2023-12-22T12:59:49;97511.88;;;9.84;78.71
27729;BME280;15126;42.186;24.340;2023-12-22T13:02:18;97482.66;;;9.79;78.46
27729;BME280;15126;42.186;24.340;2023-12-22T13:04:48;97504.81;;;10.06;78.30
27729;BME280;15126;42.186;24.340;2023-12-22T13:07:26;97490.91;;;10.06;77.84
27729;BME280;15126;42.186;24.340;2023-12-22T13:09:53;97493.81;;;10.12;78.16
27729;BME280;15126;42.186;24.340;2023-12-22T13:12:23;97498.59;;;10.21;77.81